• Join FlightAware (Why Join?)
  • Login
  • US Flag 
11:25AM EST


 

Airport Tracker/Info


-or-


 

Live Flight TrackerFlight Track Log ✈ N961RA ✈ 07-May-2013 ✈ KCAK - KGSH

Flight Track Log - Related Links

Times and Time Zones

All times are in EDT time to prevent confusion due to time zone crossing. See the N961RA flight status page for this flight to view local times or setup timezone preferences in your user account.

Time Position Orientation Groundspeed Altitude Reporting Facility
EDT Latitude Longitude Course Direction KTS MPH feet Rate Location/Type
07:40AM 40.9450 -81.5286 270° West 210 242 6,100  Level Cleveland Center
07:41AM 40.9111 -81.6025 239° Southwest 244 281 8,000 960 Climbing Cleveland Center
07:42AM 40.8747 -81.6814 239° Southwest 280 322 8,100 1,020 Climbing Cleveland Center
07:43AM 40.8697 -81.7886 267° West 280 322 10,100 1,920 Climbing Cleveland Center
07:44AM 40.8706 -81.8956 271° West 292 336 12,000 1,980 Climbing Cleveland Center
07:45AM 40.8834 -82.0158 270° West  Level FlightAware Approximate
07:45AM 40.8714 -82.0000 271° West 292 336 14,100  Level Cleveland Center
07:46AM 40.8834 -82.1131 270° West  Level FlightAware Approximate
07:46AM 40.8700 -82.1042 269° West 292 336 16,000  Level Cleveland Center
07:47AM 40.8664 -82.2222 268° West 292 336 17,700 1,680 Climbing Cleveland Center
07:48AM 40.8667 -82.3267 270° West 292 336 19,400 1,680 Climbing Cleveland Center
07:49AM 40.8672 -82.4364 270° West 292 336 21,100 1,860 Climbing Cleveland Center
07:50AM 40.8653 -82.5436 269° West 292 336 23,200 1,800 Climbing Cleveland Center
07:51AM 40.8781 -82.6456 279° West 286 329 24,800 1,320 Climbing Cleveland Center
07:52AM 40.9053 -82.7508 289° West 291 335 25,900 600 Climbing Cleveland Center
07:53AM 40.9303 -82.8697 286° West 323 372 26,000  Climbing Cleveland Center
07:54AM 40.9567 -82.9972 285° West 355 409 26,000  Level Cleveland Center
07:55AM 40.9811 -83.1164 285° West 370 426 26,000  Level Cleveland Center
07:56AM 41.0175 -83.2664 288° West 387 445 26,000  Level Cleveland Center
07:57AM 41.0456 -83.3997 286° West 380 437 26,000  Level Cleveland Center
07:58AM 41.0756 -83.5333 287° West 378 435 26,000  Level Cleveland Center
07:59AM 41.0972 -83.6583 283° West 378 435 26,000  Level Cleveland Center
08:00AM 41.1269 -83.7947 286° West 385 443 26,000 -300 Level Cleveland Center
08:01AM 41.1564 -83.9286 286° West 385 443 25,500 -960 Descending Cleveland Center
08:02AM 41.1856 -84.0681 286° West 385 443 24,100 -1,500 Descending Cleveland Center
08:03AM 41.2019 -84.1453 286° West 396 456 23,200 -1,560 Descending Chicago Center
08:04AM 41.2272 -84.2747 285° West 372 428 21,700 -1,500 Descending Chicago Center
08:05AM 41.2528 -84.4003 285° West 359 413 20,200 -1,620 Descending Chicago Center
08:06AM 41.2828 -84.5469 285° West 346 398 18,400 -1,560 Descending Chicago Center
08:07AM 41.3069 -84.6706 285° West 345 397 17,000 -1,440 Descending Chicago Center
08:08AM 41.3306 -84.7886 285° West 338 389 15,500 -1,500 Descending Chicago Center
08:09AM 41.3539 -84.9072 285° West 332 382 14,000 -1,500 Descending Chicago Center
08:10AM 41.3775 -85.0239 285° West 328 377 12,500 -1,800 Descending Chicago Center
08:11AM 41.4003 -85.1381 285° West 323 372 10,300 -2,280 Descending Chicago Center
08:12AM 41.4211 -85.2469 284° West 310 357 7,800 -2,400 Descending Chicago Center
08:13AM 41.4414 -85.3506 285° West 298 343 5,400 -1,860 Descending Chicago Center
08:14AM 41.4628 -85.4658 284° West 277 319 4,000 -1,380 Descending Chicago Center